Time;durP1;ratioP1;P1;durP2;ratioP2;P2;SDS_P1;SDS_P2;PMS_P1;PMS_P2;Temp;Humidity;BMP_temperature;BMP_pressure;BME280_temperature;BME280_humidity;BME280_pressure;Samples;Min_cycle;Max_cycle;Signal;HPM_P1;HPM_P2
2021/01/28 00:03:24;;;;;;;240.97;84.07;;;;;;;-1.57;78.25;98256.67;258201;1112;23083;-70
2021/01/28 00:08:27;;;;;;;244.80;87.60;;;;;;;-1.61;78.42;98250.27;258227;1112;26057;-71
2021/01/28 00:13:30;;;;;;;242.43;85.40;;;;;;;-1.64;78.12;98245.42;258252;1112;23197;-71
2021/01/28 00:18:32;;;;;;;215.23;79.57;;;;;;;-1.67;78.50;98240.63;258068;1112;23174;-72
2021/01/28 00:23:34;;;;;;;196.93;70.70;;;;;;;-1.70;78.60;98238.45;258215;1111;23192;-71
2021/01/28 00:28:36;;;;;;;174.70;65.80;;;;;;;-1.79;77.95;98226.63;257994;1112;23650;-72
2021/01/28 00:33:38;;;;;;;164.13;62.40;;;;;;;-1.92;78.33;98233.67;258222;1111;23058;-70
2021/01/28 00:38:40;;;;;;;166.47;59.63;;;;;;;-2.10;77.84;98231.86;257926;1112;23117;-71
2021/01/28 00:43:54;;;;;;;142.77;56.93;;;;;;;-2.29;78.32;98227.63;258134;1112;23097;-71
2021/01/28 00:48:56;;;;;;;145.23;56.33;;;;;;;-2.49;78.61;98228.62;258072;1112;23475;-72
2021/01/28 00:53:58;;;;;;;140.20;53.00;;;;;;;-2.67;78.44;98224.16;258115;1112;23504;-71
2021/01/28 00:59:00;;;;;;;123.37;49.13;;;;;;;-2.80;78.68;98226.88;258235;1111;28813;-71
2021/01/28 01:04:05;;;;;;;130.80;48.57;;;;;;;-2.96;78.44;98215.91;258378;1112;23222;-72
2021/01/28 01:09:08;;;;;;;130.80;50.40;;;;;;;-3.10;78.99;98207.35;258353;1111;23027;-72
2021/01/28 01:14:22;;;;;;;104.23;44.70;;;;;;;-3.18;78.92;98204.20;258210;1112;23079;-72
2021/01/28 01:19:24;;;;;;;119.75;45.25;;;;;;;-3.42;78.62;98209.20;258105;1111;23196;-72
2021/01/28 01:24:34;;;;;;;107.50;43.43;;;;;;;-3.65;78.41;98202.69;258166;1112;23030;-71
2021/01/28 01:29:37;;;;;;;105.03;43.77;;;;;;;-3.79;78.53;98188.08;258117;1112;23082;-71
2021/01/28 01:35:08;;;;;;;107.23;42.53;;;;;;;-3.94;78.78;98183.11;258418;1111;23097;-72
2021/01/28 01:40:23;;;;;;;102.87;44.80;;;;;;;-4.02;79.42;98184.13;258157;1111;23077;-72
2021/01/28 01:45:36;;;;;;;84.93;36.37;;;;;;;-4.01;79.92;98183.13;258115;1112;23014;-72
2021/01/28 01:50:58;;;;;;;72.80;32.20;;;;;;;-4.16;79.19;98180.77;258213;1111;23232;-71
2021/01/28 01:56:07;;;;;;;75.90;31.60;;;;;;;-4.30;79.44;98177.40;258264;1111;23083;-72
2021/01/28 02:01:12;;;;;;;71.55;26.70;;;;;;;-4.39;79.93;98183.88;258218;1112;23157;-72
2021/01/28 02:06:41;;;;;;;70.27;28.60;;;;;;;-4.48;80.03;98169.42;258144;1112;23004;-72
2021/01/28 02:12:22;;;;;;;68.43;28.50;;;;;;;-4.55;79.76;98160.80;258084;1112;23086;-72
2021/01/28 02:17:43;;;;;;;;;;;;;;;-4.62;80.42;98141.72;258404;1112;27352;-71
2021/01/28 02:23:16;;;;;;;79.67;32.70;;;;;;;-4.71;80.27;98149.78;257978;1111;21529;-72
2021/01/28 02:28:20;;;;;;;70.45;31.50;;;;;;;-4.72;80.54;98140.33;258324;1111;23169;-72
2021/01/28 02:33:48;;;;;;;70.27;31.50;;;;;;;-4.71;80.65;98139.33;258048;1112;23065;-71
2021/01/28 02:39:17;;;;;;;61.70;26.17;;;;;;;-4.78;80.63;98133.31;258199;1111;23036;-73
2021/01/28 02:44:20;;;;;;;78.57;32.33;;;;;;;-4.78;81.04;98111.59;258161;1111;23112;-71
2021/01/28 02:49:50;;;;;;;;;;;;;;;-4.77;81.04;98116.63;258256;1112;23232;-72
2021/01/28 02:54:54;;;;;;;64.90;27.40;;;;;;;-4.79;81.40;98105.56;258392;1112;21520;-72
2021/01/28 02:59:57;;;;;;;42.07;18.47;;;;;;;-4.84;80.57;98093.13;258217;1112;23050;-72
2021/01/28 03:05:00;;;;;;;55.17;23.73;;;;;;;-4.91;80.72;98100.19;258151;1112;23154;-72
2021/01/28 03:10:11;;;;;;;57.17;23.57;;;;;;;-4.95;80.31;98108.61;258254;1112;23073;-71
2021/01/28 03:15:23;;;;;;;53.40;23.67;;;;;;;-5.04;80.32;98093.16;258162;1111;23149;-70
2021/01/28 03:20:26;;;;;;;55.60;22.65;;;;;;;-5.06;81.07;98087.34;258397;1112;26062;-71
2021/01/28 03:25:31;;;;;;;50.73;23.10;;;;;;;-5.01;81.03;98079.70;258123;1111;23391;-71
2021/01/28 03:30:36;;;;;;;39.50;18.45;;;;;;;-5.01;80.77;98074.48;258353;1111;23026;-71
2021/01/28 03:35:42;;;;;;;47.10;18.90;;;;;;;-5.06;80.94;98068.27;258139;1111;23293;-72
2021/01/28 03:40:48;;;;;;;41.83;16.90;;;;;;;-5.14;80.34;98063.26;258436;1110;23019;-72
2021/01/28 03:45:50;;;;;;;35.37;15.87;;;;;;;-5.22;80.28;98056.43;258191;1111;27348;-71
2021/01/28 03:50:53;;;;;;;38.10;17.10;;;;;;;-5.27;80.14;98053.65;258208;1112;23027;-71
2021/01/28 03:56:02;;;;;;;38.57;16.60;;;;;;;-5.36;80.29;98043.41;258887;1109;23486;-72
2021/01/28 04:01:09;;;;;;;49.60;19.75;;;;;;;-5.41;80.78;98024.14;258935;1108;23357;-71
2021/01/28 04:06:14;;;;;;;35.55;16.25;;;;;;;-5.42;80.18;98022.53;258994;1108;23232;-71
2021/01/28 04:11:30;;;;;;;41.73;19.07;;;;;;;-5.50;80.12;98013.09;259229;1107;23033;-72
2021/01/28 04:16:37;;;;;;;33.75;15.35;;;;;;;-5.54;80.38;98015.33;258930;1109;23184;-71
2021/01/28 04:21:39;;;;;;;34.40;15.25;;;;;;;-5.59;80.46;98022.95;258963;1109;23042;-71
2021/01/28 04:26:43;;;;;;;46.73;20.20;;;;;;;-5.64;80.43;98019.34;258893;1109;23074;-73
2021/01/28 04:31:47;;;;;;;55.30;22.00;;;;;;;-5.71;80.65;98014.94;258868;1109;26531;-73
2021/01/28 04:37:19;;;;;;;55.23;23.67;;;;;;;-5.67;80.31;98002.28;258439;1108;23039;-72
2021/01/28 04:42:42;;;;;;;41.45;16.40;;;;;;;-5.70;80.72;98007.91;258902;1109;22993;-71
2021/01/28 04:47:54;;;;;;;42.85;15.80;;;;;;;-5.77;80.85;98009.72;258915;1107;23014;-71
2021/01/28 04:53:24;;;;;;;40.70;17.20;;;;;;;-5.82;80.52;98001.69;258862;1109;23080;-72
2021/01/28 04:58:43;;;;;;;44.10;17.80;;;;;;;-5.83;81.14;98003.50;258936;1107;26910;-71
2021/01/28 05:03:56;;;;;;;43.43;20.17;;;;;;;-5.81;80.89;97992.86;259044;1108;23199;-71
2021/01/28 05:09:28;;;;;;;44.60;20.73;;;;;;;-5.79;81.03;97975.19;258989;1107;23076;-72
2021/01/28 05:14:51;;;;;;;42.40;16.07;;;;;;;-5.75;81.02;97971.99;259149;1109;23093;-74
2021/01/28 05:20:09;;;;;;;47.27;18.93;;;;;;;-5.68;81.50;97956.30;259230;1107;23043;-72
2021/01/28 05:25:40;;;;;;;45.57;19.17;;;;;;;-5.60;81.54;97937.03;259102;1107;23078;-72
2021/01/28 05:30:52;;;;;;;35.10;17.10;;;;;;;-5.57;80.94;97931.40;259192;1109;23083;-71
2021/01/28 05:36:05;;;;;;;43.73;17.43;;;;;;;-5.57;81.75;97931.40;259068;1109;23023;-71
2021/01/28 05:41:24;;;;;;;42.97;19.13;;;;;;;-5.56;81.07;97922.57;259244;1108;26222;-71
2021/01/28 05:46:30;;;;;;;40.50;17.83;;;;;;;-5.58;81.79;97916.73;259118;1104;23063;-72
2021/01/28 05:51:49;;;;;;;53.13;22.23;;;;;;;-5.56;82.06;97905.09;259093;1108;23037;-71
2021/01/28 05:57:19;;;;;;;42.48;17.98;;;;;;;-5.51;82.02;97909.72;259067;1109;23091;-71
2021/01/28 06:02:48;;;;;;;46.67;20.27;;;;;;;-5.48;81.50;97885.81;259033;1108;23096;-71
2021/01/28 06:08:43;;;;;;;46.67;19.53;;;;;;;-5.39;81.74;97873.31;258638;1109;23357;-72
2021/01/28 06:14:05;;;;;;;55.80;22.83;;;;;;;-5.30;82.17;97868.66;258964;1109;23157;-71
2021/01/28 06:19:38;;;;;;;52.98;21.42;;;;;;;-5.19;82.71;97870.61;259103;1107;23197;-72
2021/01/28 06:25:12;;;;;;;55.33;21.50;;;;;;;-5.11;82.46;97880.81;259027;1107;23046;-71
2021/01/28 06:30:21;;;;;;;43.60;20.07;;;;;;;-5.07;82.26;97876.78;258912;1108;24377;-70
2021/01/28 06:35:41;;;;;;;46.03;21.77;;;;;;;-4.94;82.59;97872.50;258957;1109;23020;-72
2021/01/28 06:41:12;;;;;;;39.87;18.03;;;;;;;-4.78;82.46;97872.00;259005;1107;22987;-71
2021/01/28 06:47:01;;;;;;;36.13;15.33;;;;;;;-4.62;82.71;97865.44;258958;1107;23161;-71
2021/01/28 06:52:48;;;;;;;32.23;15.13;;;;;;;-4.44;82.66;97856.86;260019;1107;23051;-70
2021/01/28 06:58:20;;;;;;;43.70;18.23;;;;;;;-4.23;82.17;97847.05;259375;1108;23030;-71
2021/01/28 07:04:03;;;;;;;30.90;16.00;;;;;;;-3.96;82.24;97850.19;259770;1107;22998;-70
2021/01/28 07:10:01;;;;;;;40.40;17.63;;;;;;;-3.62;81.68;97843.59;259642;1108;23357;-70
2021/01/28 07:15:10;;;;;;;33.63;15.97;;;;;;;-3.28;81.46;97837.95;259466;1107;23080;-72
2021/01/28 07:20:59;;;;;;;39.83;17.50;;;;;;;-2.92;80.79;97833.64;259411;1107;23080;-70
2021/01/28 07:26:12;;;;;;;37.83;17.57;;;;;;;-2.69;80.97;97827.63;259714;1107;23317;-72
2021/01/28 07:31:42;;;;;;;40.43;19.20;;;;;;;-2.48;80.33;97820.25;259551;1107;23223;-70
2021/01/28 07:36:52;;;;;;;45.43;20.10;;;;;;;-2.37;79.54;97818.67;259575;1107;23418;-72
2021/01/28 07:42:30;;;;;;;39.10;20.20;;;;;;;-2.32;79.45;97811.72;259704;1107;23223;-72
2021/01/28 07:48:00;;;;;;;40.47;17.97;;;;;;;-2.22;79.86;97829.51;259277;1107;23019;-71
2021/01/28 07:53:50;;;;;;;38.10;17.00;;;;;;;-2.14;79.14;97813.42;259420;1108;23004;-71
2021/01/28 07:58:57;;;;;;;33.40;16.00;;;;;;;-2.06;79.29;97801.77;259481;1108;23090;-71
2021/01/28 08:04:04;;;;;;;30.33;16.17;;;;;;;-1.98;78.59;97788.29;259562;1108;23017;-71
2021/01/28 08:09:09;;;;;;;32.30;15.40;;;;;;;-1.90;78.34;97795.03;259515;1107;28767;-72
2021/01/28 08:14:14;;;;;;;34.57;15.40;;;;;;;-1.78;78.55;97813.37;259439;1107;23097;-71
2021/01/28 08:19:23;;;;;;;28.27;13.20;;;;;;;-1.59;78.57;97801.67;259516;1107;23033;-72
2021/01/28 08:24:58;;;;;;;50.23;22.30;;;;;;;-1.39;78.24;97790.74;259514;1106;26471;-71
2021/01/28 08:30:15;;;;;;;30.97;14.27;;;;;;;-1.21;78.09;97781.88;259604;1109;22988;-71
2021/01/28 08:35:24;;;;;;;26.37;12.63;;;;;;;-0.96;78.18;97779.94;259666;1107;22986;-70
2021/01/28 08:40:26;;;;;;;27.30;14.03;;;;;;;-0.84;77.68;97785.11;259524;1108;23087;-71
2021/01/28 08:45:29;;;;;;;28.30;14.65;;;;;;;-0.72;78.08;97783.21;259400;1108;23029;-72
2021/01/28 08:50:32;;;;;;;29.17;16.30;;;;;;;-0.48;78.47;97769.89;259406;1107;23039;-71
2021/01/28 08:55:38;;;;;;;32.70;15.35;;;;;;;-0.30;77.76;97761.72;259489;1107;22989;-70
2021/01/28 09:00:48;;;;;;;26.57;14.27;;;;;;;-0.19;77.09;97758.19;259485;1107;22999;-75
2021/01/28 09:05:52;;;;;;;26.83;14.20;;;;;;;-0.20;75.71;97755.80;259460;1107;23451;-76
2021/01/28 09:11:10;;;;;;;34.27;17.50;;;;;;;-0.13;77.19;97753.00;259843;1108;23211;-72
2021/01/28 09:16:15;;;;;;;27.73;14.63;;;;;;;-0.11;76.83;97745.64;259762;1107;23229;-72
2021/01/28 09:21:21;;;;;;;26.70;13.47;;;;;;;-0.02;77.28;97731.81;259437;1106;23317;-70
2021/01/28 09:26:34;;;;;;;22.70;14.03;;;;;;;0.09;76.36;97718.78;259498;1107;23071;-73
2021/01/28 09:31:36;;;;;;;25.97;12.77;;;;;;;0.24;76.91;97720.77;259527;1107;23888;-73
2021/01/28 09:36:40;;;;;;;24.57;13.67;;;;;;;0.50;77.31;97696.30;259529;1108;23089;-74
2021/01/28 09:41:47;;;;;;;26.30;14.60;;;;;;;0.71;76.14;97683.28;259564;1107;23839;-74
2021/01/28 09:47:18;;;;;;;21.77;12.73;;;;;;;0.99;76.29;97689.31;259534;1108;23030;-72
2021/01/28 09:52:25;;;;;;;20.67;12.87;;;;;;;1.17;75.17;97678.36;259381;1107;23212;-74
2021/01/28 09:57:29;;;;;;;22.15;12.45;;;;;;;1.27;74.92;97659.16;259530;1108;23062;-73
2021/01/28 10:02:48;;;;;;;24.15;12.85;;;;;;;1.25;74.87;97656.00;259560;1107;23475;-73
2021/01/28 10:07:51;;;;;;;18.43;11.60;;;;;;;1.33;74.98;97652.07;259418;1108;23464;-72
2021/01/28 10:12:56;;;;;;;24.23;13.83;;;;;;;1.54;74.98;97653.00;259473;1107;23024;-74
2021/01/28 10:17:59;;;;;;;23.27;13.43;;;;;;;1.79;75.06;97654.14;259728;1109;23021;-73
2021/01/28 10:23:04;;;;;;;23.57;12.60;;;;;;;1.91;74.67;97636.23;259479;1108;23053;-74
2021/01/28 10:28:06;;;;;;;19.93;10.87;;;;;;;2.02;73.92;97624.64;259472;1107;23112;-73
2021/01/28 10:33:11;;;;;;;19.20;11.43;;;;;;;2.06;72.30;97617.00;259416;1108;23039;-73
2021/01/28 10:38:13;;;;;;;19.37;11.87;;;;;;;2.02;72.82;97598.22;259718;1109;23743;-73
2021/01/28 10:43:15;;;;;;;19.70;11.23;;;;;;;1.99;73.49;97600.61;259662;1107;23050;-73
2021/01/28 10:48:18;;;;;;;19.40;11.83;;;;;;;2.07;73.48;97602.74;259538;1107;23084;-73
2021/01/28 10:53:20;;;;;;;19.43;10.80;;;;;;;2.06;73.24;97585.30;259745;1107;23151;-73
2021/01/28 10:58:26;;;;;;;17.93;11.53;;;;;;;1.97;72.25;97587.66;259745;1109;23026;-74
2021/01/28 11:03:28;;;;;;;19.20;10.60;;;;;;;1.84;71.93;97585.51;259657;1107;23142;-72
2021/01/28 11:08:30;;;;;;;20.60;11.63;;;;;;;1.84;73.50;97573.09;259787;1108;23226;-73
2021/01/28 11:13:33;;;;;;;18.80;12.10;;;;;;;1.87;73.03;97567.31;261216;1107;23235;-74
2021/01/28 11:18:35;;;;;;;17.60;10.40;;;;;;;1.83;73.64;97566.23;259734;1107;23035;-75
2021/01/28 11:23:37;;;;;;;17.77;11.47;;;;;;;1.73;73.15;97560.13;259571;1107;22974;-74
2021/01/28 11:28:40;;;;;;;17.60;10.83;;;;;;;1.60;74.14;97543.73;259658;1107;23062;-73
2021/01/28 11:33:42;;;;;;;18.33;10.97;;;;;;;1.54;73.93;97542.14;259488;1108;23468;-74
2021/01/28 11:38:44;;;;;;;19.60;11.00;;;;;;;1.51;73.66;97535.53;259662;1108;23011;-74
2021/01/28 11:43:46;;;;;;;18.57;10.83;;;;;;;1.41;73.93;97529.41;259511;1107;23592;-74
2021/01/28 11:48:49;;;;;;;20.37;12.77;;;;;;;1.39;74.81;97521.76;259417;1107;26197;-74
2021/01/28 11:53:51;;;;;;;18.90;10.47;;;;;;;1.42;74.92;97513.31;259345;1109;22989;-74
2021/01/28 11:58:53;;;;;;;17.07;10.80;;;;;;;1.46;74.79;97490.64;259345;1107;22988;-73
2021/01/28 12:03:55;;;;;;;21.03;11.67;;;;;;;1.53;75.18;97483.26;259310;1107;23020;-73
2021/01/28 12:08:59;;;;;;;17.57;10.30;;;;;;;1.63;74.58;97476.42;259479;1107;23061;-73
2021/01/28 12:14:01;;;;;;;18.63;11.17;;;;;;;1.58;75.35;97469.30;259663;1108;27891;-71
2021/01/28 12:19:03;;;;;;;18.27;10.67;;;;;;;1.53;75.09;97467.42;259415;1108;22998;-73
2021/01/28 12:24:05;;;;;;;17.07;10.97;;;;;;;1.52;74.58;97463.19;259447;1107;23034;-72
2021/01/28 12:29:08;;;;;;;19.27;11.23;;;;;;;1.42;75.38;97457.12;259480;1108;23090;-73
2021/01/28 12:34:10;;;;;;;18.53;11.73;;;;;;;1.38;75.52;97456.05;259348;1108;23449;-73
2021/01/28 12:39:13;;;;;;;17.30;10.43;;;;;;;1.29;76.25;97437.30;259355;1107;23039;-73
2021/01/28 12:44:14;;;;;;;16.30;11.00;;;;;;;1.33;75.92;97436.52;259382;1108;26437;-73
2021/01/28 12:49:17;;;;;;;18.80;10.90;;;;;;;1.42;76.04;97428.88;259456;1107;23477;-74
2021/01/28 12:54:20;;;;;;;15.97;9.77;;;;;;;1.47;76.43;97420.97;259429;1108;23028;-74
2021/01/28 12:59:22;;;;;;;17.05;10.75;;;;;;;1.41;76.44;97422.00;259535;1108;23084;-74
2021/01/28 13:04:24;;;;;;;19.47;11.33;;;;;;;1.33;76.36;97407.49;259334;1108;23178;-72
2021/01/28 13:09:26;;;;;;;19.40;10.73;;;;;;;1.28;76.38;97409.33;259557;1109;23427;-77
2021/01/28 13:14:28;;;;;;;19.17;12.10;;;;;;;1.28;77.35;97401.41;259488;1107;23456;-73
2021/01/28 13:19:30;;;;;;;17.90;11.35;;;;;;;1.24;76.49;97397.71;259460;1108;23026;-72
2021/01/28 13:24:32;;;;;;;18.13;11.67;;;;;;;1.25;77.20;97397.45;259292;1107;23052;-72
2021/01/28 13:29:35;;;;;;;21.60;11.60;;;;;;;1.24;77.64;97380.02;259500;1107;23430;-73
2021/01/28 13:34:37;;;;;;;19.53;12.00;;;;;;;1.26;77.57;97363.93;259463;1107;23667;-73
2021/01/28 13:39:38;;;;;;;21.60;13.60;;;;;;;1.25;76.78;97354.45;259337;1107;23055;-72
2021/01/28 13:44:40;;;;;;;19.40;11.85;;;;;;;1.30;77.45;97342.06;259596;1107;26453;-73
2021/01/28 13:49:42;;;;;;;21.17;12.97;;;;;;;1.34;77.21;97355.50;259427;1107;23023;-74
2021/01/28 13:54:44;;;;;;;20.80;12.33;;;;;;;1.31;77.76;97356.81;259503;1107;23024;-72
2021/01/28 13:59:46;;;;;;;20.40;12.45;;;;;;;1.29;78.10;97340.47;259556;1107;24216;-73
2021/01/28 14:04:48;;;;;;;21.23;12.30;;;;;;;1.25;77.19;97330.71;259666;1107;23022;-74
2021/01/28 14:09:51;;;;;;;20.70;13.10;;;;;;;1.29;78.07;97331.77;259468;1107;23054;-74
2021/01/28 14:14:54;;;;;;;30.30;16.70;;;;;;;1.23;77.85;97327.53;259239;1108;23096;-75
2021/01/28 14:19:56;;;;;;;33.27;19.30;;;;;;;1.26;78.01;97319.08;259484;1107;23627;-74
2021/01/28 14:24:58;;;;;;;28.73;17.07;;;;;;;1.28;77.83;97314.34;259684;1107;27048;-74
2021/01/28 14:30:01;;;;;;;23.50;12.70;;;;;;;1.27;78.64;97292.43;259359;1107;23001;-74
2021/01/28 14:35:06;;;;;;;60.07;16.97;;;;;;;1.25;78.81;97280.59;259754;1108;23178;-73
2021/01/28 14:40:08;;;;;;;34.60;16.60;;;;;;;1.22;78.19;97265.27;259734;1107;23040;-75
2021/01/28 14:45:13;;;;;;;24.80;13.53;;;;;;;1.14;78.10;97275.29;259799;1108;23485;-73
2021/01/28 14:50:16;;;;;;;22.70;13.60;;;;;;;1.02;79.08;97261.56;259760;1108;23606;-75
2021/01/28 14:55:18;;;;;;;22.97;13.40;;;;;;;1.02;78.33;97254.47;259648;1108;23908;-76
2021/01/28 15:00:21;;;;;;;24.83;13.90;;;;;;;0.96;79.34;97255.50;259876;1108;23137;-75
2021/01/28 15:05:23;;;;;;;22.53;13.40;;;;;;;0.95;79.12;97240.75;260200;1107;23621;-75
2021/01/28 15:10:26;;;;;;;23.40;12.87;;;;;;;0.92;78.95;97232.56;260087;1107;23086;-76
2021/01/28 15:15:29;;;;;;;22.00;11.97;;;;;;;0.92;79.99;97229.93;259986;1109;26143;-74
2021/01/28 15:20:31;;;;;;;22.13;12.50;;;;;;;0.89;79.13;97222.55;259533;1107;23168;-74
2021/01/28 15:25:34;;;;;;;22.40;12.20;;;;;;;0.88;79.81;97221.74;259263;1107;23154;-75
2021/01/28 15:30:36;;;;;;;22.90;12.63;;;;;;;0.83;79.64;97217.27;259122;1108;23029;-74
2021/01/28 15:35:39;;;;;;;22.50;14.00;;;;;;;0.83;79.69;97209.36;259186;1108;23140;-74
2021/01/28 15:40:41;;;;;;;21.30;12.13;;;;;;;0.82;80.79;97209.63;259222;1108;23164;-74
2021/01/28 15:45:43;;;;;;;27.03;14.00;;;;;;;0.77;80.16;97188.52;258917;1108;23151;-73
2021/01/28 15:50:45;;;;;;;28.17;16.20;;;;;;;0.75;80.25;97188.78;259078;1107;23074;-73
2021/01/28 15:55:48;;;;;;;27.00;14.60;;;;;;;0.74;81.35;97184.59;259011;1108;26537;-74
2021/01/28 16:00:50;;;;;;;25.20;14.87;;;;;;;0.77;81.04;97191.97;259095;1108;23075;-74
2021/01/28 16:05:52;;;;;;;24.80;14.05;;;;;;;0.77;80.92;97180.61;258991;1107;23076;-74
2021/01/28 16:10:55;;;;;;;25.97;14.10;;;;;;;0.78;81.02;97171.66;259044;1107;23023;-73
2021/01/28 16:15:58;;;;;;;24.47;13.60;;;;;;;0.80;81.05;97172.98;259066;1107;23202;-74
2021/01/28 16:21:01;;;;;;;24.97;14.43;;;;;;;0.82;80.74;97167.44;259122;1107;23083;-74
2021/01/28 16:26:03;;;;;;;24.80;12.33;;;;;;;0.83;81.41;97161.12;259233;1107;23071;-74
2021/01/28 16:31:05;;;;;;;28.80;13.77;;;;;;;0.84;80.79;97163.49;258978;1107;23012;-75
2021/01/28 16:36:08;;;;;;;28.63;14.17;;;;;;;0.87;81.44;97161.37;259087;1109;23088;-73
2021/01/28 16:41:10;;;;;;;26.77;13.60;;;;;;;0.87;81.80;97150.83;258942;1107;23023;-74
2021/01/28 16:46:13;;;;;;;21.17;12.20;;;;;;;0.87;81.02;97149.00;258947;1108;23619;-74
2021/01/28 16:51:15;;;;;;;21.30;12.10;;;;;;;0.87;81.13;97141.09;259062;1107;23003;-74
2021/01/28 16:56:17;;;;;;;22.90;12.40;;;;;;;0.88;81.80;97145.28;259033;1107;23219;-74
2021/01/28 17:01:19;;;;;;;24.47;13.10;;;;;;;0.85;81.96;97143.99;259161;1108;23461;-74
2021/01/28 17:06:22;;;;;;;25.77;13.40;;;;;;;0.85;82.08;97143.99;259136;1108;23195;-73
2021/01/28 17:11:24;;;;;;;22.60;13.47;;;;;;;0.85;81.82;97136.08;259014;1108;23138;-74
2021/01/28 17:16:27;;;;;;;25.40;14.47;;;;;;;0.85;82.17;97125.54;259004;1107;23079;-74
2021/01/28 17:21:30;;;;;;;26.75;13.70;;;;;;;0.85;82.04;97136.08;259157;1108;23030;-73
2021/01/28 17:26:32;;;;;;;24.70;15.15;;;;;;;0.83;82.93;97127.63;259119;1107;23079;-73
2021/01/28 17:31:34;;;;;;;29.63;16.07;;;;;;;0.78;84.30;97124.21;259055;1108;23155;-73
2021/01/28 17:36:37;;;;;;;28.93;14.70;;;;;;;0.74;84.51;97129.23;259041;1107;23146;-73
2021/01/28 17:41:39;;;;;;;26.13;13.93;;;;;;;0.69;83.94;97131.87;259008;1108;23039;-74
2021/01/28 17:46:41;;;;;;;27.87;14.33;;;;;;;0.63;85.16;97128.45;258999;1108;23091;-75
2021/01/28 17:51:45;;;;;;;31.13;14.90;;;;;;;0.54;86.61;97119.47;259259;1108;23044;-74
2021/01/28 17:56:47;;;;;;;31.73;16.73;;;;;;;0.51;85.88;97117.38;259121;1106;23027;-74
2021/01/28 18:01:49;;;;;;;32.13;17.10;;;;;;;0.45;86.62;97107.89;259090;1108;23076;-74
2021/01/28 18:06:51;;;;;;;34.57;17.43;;;;;;;0.39;87.34;97122.88;259206;1107;23096;-74
2021/01/28 18:11:56;;;;;;;29.27;15.73;;;;;;;0.34;87.36;97099.97;259001;1107;23222;-74
2021/01/28 18:16:58;;;;;;;33.30;17.40;;;;;;;0.29;87.07;97102.59;259395;1107;23091;-74
2021/01/28 18:22:02;;;;;;;32.23;16.50;;;;;;;0.24;87.86;97099.97;259067;1109;25046;-74
2021/01/28 18:27:05;;;;;;;32.67;16.43;;;;;;;0.24;87.96;97099.97;259202;1107;23522;-73
2021/01/28 18:32:07;;;;;;;29.45;16.20;;;;;;;0.25;87.42;97093.66;259092;1108;26553;-74
2021/01/28 18:37:15;;;;;;;27.93;15.47;;;;;;;0.25;88.42;97100.75;259052;1107;23073;-74
2021/01/28 18:42:17;;;;;;;31.40;16.85;;;;;;;0.24;87.31;97102.61;258983;1107;23023;-74
2021/01/28 18:47:19;;;;;;;30.67;16.77;;;;;;;0.24;87.68;97107.06;259069;1108;23023;-73
2021/01/28 18:52:21;;;;;;;30.27;17.17;;;;;;;0.25;87.65;97106.83;259000;1108;23018;-74
2021/01/28 18:57:25;;;;;;;28.43;14.90;;;;;;;0.26;88.22;97102.34;259135;1109;23196;-74
2021/01/28 19:02:28;;;;;;;25.63;13.73;;;;;;;0.22;89.33;97090.75;259033;1107;23083;-73
2021/01/28 19:07:33;;;;;;;25.37;12.20;;;;;;;0.21;89.63;97094.42;259181;1108;23056;-73
2021/01/28 19:12:36;;;;;;;28.30;15.57;;;;;;;0.20;88.58;97087.56;258982;1108;23010;-73
2021/01/28 19:17:39;;;;;;;28.27;13.97;;;;;;;0.21;89.14;97086.52;259148;1107;23026;-74
2021/01/28 19:22:41;;;;;;;26.83;14.07;;;;;;;0.23;89.00;97084.44;259007;1109;23149;-72
2021/01/28 19:27:44;;;;;;;24.20;12.67;;;;;;;0.24;89.68;97072.83;258970;1108;26032;-77
2021/01/28 19:32:47;;;;;;;27.60;14.60;;;;;;;0.24;88.99;97078.09;259029;1107;23061;-73
2021/01/28 19:37:49;;;;;;;29.03;15.30;;;;;;;0.25;88.51;97085.76;258963;1108;24024;-73
2021/01/28 19:42:51;;;;;;;29.70;16.87;;;;;;;0.26;87.96;97084.69;258961;1108;23099;-73
2021/01/28 19:47:54;;;;;;;31.80;16.37;;;;;;;0.27;88.92;97080.23;259315;1108;23196;-74
2021/01/28 19:53:00;;;;;;;29.77;14.80;;;;;;;0.29;88.87;97088.64;258927;1109;25911;-74
2021/01/28 19:58:05;;;;;;;32.77;17.47;;;;;;;0.26;88.87;97086.54;259016;1107;23094;-74
2021/01/28 20:03:10;;;;;;;29.33;17.40;;;;;;;0.26;89.26;97086.54;259204;1108;24651;-74
2021/01/28 20:08:13;;;;;;;30.37;15.37;;;;;;;0.29;89.03;97086.78;259103;1108;23225;-74
2021/01/28 20:13:20;;;;;;;44.33;22.70;;;;;;;0.38;88.54;97092.34;259092;1108;23015;-74
2021/01/28 20:18:24;;;;;;;29.40;15.70;;;;;;;0.41;88.82;97083.13;259006;1107;23023;-74
2021/01/28 20:23:27;;;;;;;30.50;15.25;;;;;;;0.39;88.75;97088.63;259127;1108;23090;-74
2021/01/28 20:28:29;;;;;;;32.00;16.60;;;;;;;0.36;88.71;97085.75;259163;1108;23023;-75
2021/01/28 20:33:32;;;;;;;31.23;17.83;;;;;;;0.30;88.70;97083.11;259098;1108;23077;-74
2021/01/28 20:38:34;;;;;;;33.87;17.73;;;;;;;0.31;88.88;97087.33;259486;1107;23220;-75
2021/01/28 20:43:36;;;;;;;34.10;16.83;;;;;;;0.30;88.22;97091.02;259096;1107;23201;-74
2021/01/28 20:48:38;;;;;;;33.67;18.77;;;;;;;0.29;88.10;97081.52;259094;1107;23196;-75
2021/01/28 20:53:40;;;;;;;29.80;16.37;;;;;;;0.29;88.17;97086.78;259005;1108;23037;-75
2021/01/28 20:58:42;;;;;;;29.33;15.37;;;;;;;0.28;88.66;97095.77;259144;1107;24530;-73
2021/01/28 21:03:45;;;;;;;35.30;18.47;;;;;;;0.25;88.60;97101.56;259071;1107;23063;-74
2021/01/28 21:08:47;;;;;;;34.57;18.70;;;;;;;0.24;88.60;97099.97;258950;1107;23078;-74
2021/01/28 21:13:49;;;;;;;29.10;15.00;;;;;;;0.24;88.04;97094.70;259026;1108;23032;-74
2021/01/28 21:18:51;;;;;;;34.87;19.50;;;;;;;0.22;88.03;97101.28;259093;1108;23554;-75
2021/01/28 21:23:54;;;;;;;34.20;17.60;;;;;;;0.21;88.93;97097.06;259105;1108;24487;-74
2021/01/28 21:28:56;;;;;;;30.20;15.77;;;;;;;0.23;88.55;97100.23;259251;1108;22973;-75
2021/01/28 21:33:58;;;;;;;32.30;16.67;;;;;;;0.26;88.34;97111.02;258977;1108;23067;-75
2021/01/28 21:39:01;;;;;;;30.23;17.10;;;;;;;0.25;87.97;97108.66;259123;1107;23065;-75
2021/01/28 21:44:03;;;;;;;27.40;15.23;;;;;;;0.30;88.33;97108.67;259187;1107;23042;-74
2021/01/28 21:49:06;;;;;;;25.67;14.70;;;;;;;0.33;87.49;97108.14;258966;1107;23216;-76
2021/01/28 21:54:08;;;;;;;28.03;15.10;;;;;;;0.36;88.01;97110.24;259062;1107;23183;-75
2021/01/28 21:59:10;;;;;;;27.13;14.70;;;;;;;0.40;87.81;97123.69;259101;1107;23199;-75
2021/01/28 22:04:13;;;;;;;24.67;14.10;;;;;;;0.43;87.95;97118.67;259023;1107;23334;-75
2021/01/28 22:09:15;;;;;;;27.07;15.40;;;;;;;0.45;87.92;97111.31;259293;1108;23078;-75
2021/01/28 22:14:17;;;;;;;26.43;15.23;;;;;;;0.50;87.74;97115.78;259133;1106;23348;-75
2021/01/28 22:19:19;;;;;;;28.37;15.73;;;;;;;0.51;87.58;97112.10;259072;1109;23202;-75
2021/01/28 22:24:22;;;;;;;32.67;18.10;;;;;;;0.53;87.93;97115.25;259010;1107;23100;-74
2021/01/28 22:29:24;;;;;;;26.43;15.77;;;;;;;0.59;88.69;97116.03;259238;1108;26428;-76
2021/01/28 22:34:27;;;;;;;22.40;12.97;;;;;;;0.61;87.59;97106.82;259215;1108;23186;-74
2021/01/28 22:39:29;;;;;;;24.33;14.77;;;;;;;0.56;87.57;97100.76;259191;1107;23023;-75
2021/01/28 22:44:32;;;;;;;27.13;14.10;;;;;;;0.49;87.85;97090.48;259023;1109;23014;-76
2021/01/28 22:49:35;;;;;;;28.33;14.67;;;;;;;0.47;88.41;97093.38;259015;1108;23077;-74
2021/01/28 22:54:37;;;;;;;27.30;15.07;;;;;;;0.45;87.40;97090.23;259082;1108;22981;-75
2021/01/28 22:59:40;;;;;;;27.43;14.20;;;;;;;0.49;87.70;97101.83;258916;1108;23102;-76
2021/01/28 23:04:41;;;;;;;23.43;12.73;;;;;;;0.50;88.08;97106.05;259260;1108;24639;-74
2021/01/28 23:09:44;;;;;;;23.67;12.37;;;;;;;0.44;88.04;97103.67;259007;1107;23003;-75
2021/01/28 23:14:48;;;;;;;25.73;13.77;;;;;;;0.39;87.58;97104.44;259047;1109;23074;-75
2021/01/28 23:19:50;;;;;;;23.33;12.13;;;;;;;0.32;87.58;97102.09;259008;1108;23020;-74
2021/01/28 23:24:52;;;;;;;24.50;11.60;;;;;;;0.36;88.29;97117.36;258917;1109;23019;-75
2021/01/28 23:30:15;;;;;;;20.88;11.10;;;;;;;0.32;88.27;97124.98;258974;1107;23070;-75